<?xml version='1.0' encoding='UTF-8'?><gpx version="1.1" creator="JPX - https://github.com/jenetics/jpx" xmlns="http://www.topografix.com/GPX/1/1"><trk><trkseg><trkpt lat="40.2824691" lon="15.0139508"><ele>264.0</ele><time>2026-04-19T15:23:15.335Z</time></trkpt><trkpt lat="40.2823919" lon="15.0140718"><ele>264.0</ele><time>2026-04-19T15:23:17.336Z</time></trkpt><trkpt lat="40.2823333" lon="15.0141511"><ele>264.0</ele><time>2026-04-19T15:23:18.336Z</time></trkpt><trkpt lat="40.2822697" lon="15.0142326"><ele>264.0</ele><time>2026-04-19T15:23:19.335Z</time></trkpt><trkpt lat="40.2822159" lon="15.0143077"><ele>264.0</ele><time>2026-04-19T15:23:20.335Z</time></trkpt><trkpt lat="40.2821693" lon="15.0143786"><ele>264.0</ele><time>2026-04-19T15:23:21.336Z</time></trkpt><trkpt lat="40.2821284" lon="15.0144763"><ele>264.0</ele><time>2026-04-19T15:23:22.336Z</time></trkpt><trkpt lat="40.2820813" lon="15.0145727"><ele>264.0</ele><time>2026-04-19T15:23:23.335Z</time></trkpt><trkpt lat="40.282042" lon="15.0146837"><ele>264.0</ele><time>2026-04-19T15:23:24.335Z</time></trkpt><trkpt lat="40.2819917" lon="15.0147915"><ele>264.0</ele><time>2026-04-19T15:23:25.335Z</time></trkpt><trkpt lat="40.2819409" lon="15.0148948"><ele>264.0</ele><time>2026-04-19T15:23:26.335Z</time></trkpt><trkpt lat="40.2818915" lon="15.0149907"><ele>264.0</ele><time>2026-04-19T15:23:27.335Z</time></trkpt><trkpt lat="40.2818427" lon="15.0150901"><ele>264.0</ele><time>2026-04-19T15:23:28.335Z</time></trkpt><trkpt lat="40.2817853" lon="15.015174"><ele>264.0</ele><time>2026-04-19T15:23:29.335Z</time></trkpt><trkpt lat="40.2817217" lon="15.0152436"><ele>264.0</ele><time>2026-04-19T15:23:30.335Z</time></trkpt><trkpt lat="40.2816653" lon="15.015289"><ele>264.0</ele><time>2026-04-19T15:23:31.335Z</time></trkpt><trkpt lat="40.2815951" lon="15.0153123"><ele>264.0</ele><time>2026-04-19T15:23:32.336Z</time></trkpt><trkpt lat="40.2815223" lon="15.0153311"><ele>264.0</ele><time>2026-04-19T15:23:33.336Z</time></trkpt><trkpt lat="40.2814461" lon="15.0153534"><ele>264.0</ele><time>2026-04-19T15:23:34.335Z</time></trkpt><trkpt lat="40.281375" lon="15.0153752"><ele>264.0</ele><time>2026-04-19T15:23:35.335Z</time></trkpt><trkpt lat="40.2812672" lon="15.0153585"><ele>264.0</ele><time>2026-04-19T15:23:37.335Z</time></trkpt><trkpt lat="40.2811823" lon="15.0153279"><ele>264.0</ele><time>2026-04-19T15:23:39.335Z</time></trkpt><trkpt lat="40.2811237" lon="15.0152315"><ele>264.0</ele><time>2026-04-19T15:23:41.335Z</time></trkpt><trkpt lat="40.2810931" lon="15.0151424"><ele>262.3333333333333</ele><time>2026-04-19T15:23:42.335Z</time></trkpt><trkpt lat="40.2810632" lon="15.0150329"><ele>260.6666666666667</ele><time>2026-04-19T15:23:43.335Z</time></trkpt><trkpt lat="40.2810343" lon="15.014928"><ele>259.0</ele><time>2026-04-19T15:23:44.335Z</time></trkpt><trkpt lat="40.2810005" lon="15.0148234"><ele>257.33333333333337</ele><time>2026-04-19T15:23:45.335Z</time></trkpt><trkpt lat="40.2809692" lon="15.0147198"><ele>255.66666666666669</ele><time>2026-04-19T15:23:46.335Z</time></trkpt><trkpt lat="40.2809346" lon="15.014627"><ele>254.0</ele><time>2026-04-19T15:23:47.335Z</time></trkpt><trkpt lat="40.2808929" lon="15.0145479"><ele>252.2</ele><time>2026-04-19T15:23:48.335Z</time></trkpt><trkpt lat="40.280847" lon="15.014477"><ele>250.39999999999998</ele><time>2026-04-19T15:23:49.335Z</time></trkpt><trkpt lat="40.2807883" lon="15.0143416"><ele>248.6</ele><time>2026-04-19T15:23:51.335Z</time></trkpt><trkpt lat="40.2807415" lon="15.0141874"><ele>246.8</ele><time>2026-04-19T15:23:53.336Z</time></trkpt><trkpt lat="40.2807039" lon="15.0141068"><ele>245.0</ele><time>2026-04-19T15:23:54.336Z</time></trkpt><trkpt lat="40.2806672" lon="15.0140297"><ele>243.0</ele><time>2026-04-19T15:23:55.335Z</time></trkpt><trkpt lat="40.2806301" lon="15.0139509"><ele>241.0</ele><time>2026-04-19T15:23:56.335Z</time></trkpt><trkpt lat="40.2805992" lon="15.0138787"><ele>239.0</ele><time>2026-04-19T15:23:57.336Z</time></trkpt><trkpt lat="40.2805548" lon="15.0138135"><ele>237.0</ele><time>2026-04-19T15:23:58.335Z</time></trkpt><trkpt lat="40.2805068" lon="15.0137493"><ele>235.0</ele><time>2026-04-19T15:23:59.335Z</time></trkpt><trkpt lat="40.2804613" lon="15.0136882"><ele>233.0</ele><time>2026-04-19T15:24:00.335Z</time></trkpt><trkpt lat="40.2804229" lon="15.0136165"><ele>231.0</ele><time>2026-04-19T15:24:01.335Z</time></trkpt><trkpt lat="40.2803848" lon="15.0135461"><ele>230.0</ele><time>2026-04-19T15:24:02.335Z</time></trkpt><trkpt lat="40.2803286" lon="15.0133829"><ele>229.00000000000003</ele><time>2026-04-19T15:24:04.335Z</time></trkpt><trkpt lat="40.2803024" lon="15.0132931"><ele>228.00000000000003</ele><time>2026-04-19T15:24:05.335Z</time></trkpt><trkpt lat="40.280274" lon="15.0132042"><ele>227.0</ele><time>2026-04-19T15:24:06.335Z</time></trkpt><trkpt lat="40.2802464" lon="15.0131282"><ele>226.0</ele><time>2026-04-19T15:24:07.335Z</time></trkpt><trkpt lat="40.2801765" lon="15.0130211"><ele>223.66666666666666</ele><time>2026-04-19T15:24:09.335Z</time></trkpt><trkpt lat="40.2801396" lon="15.0129146"><ele>221.33333333333331</ele><time>2026-04-19T15:24:11.336Z</time></trkpt><trkpt lat="40.2801489" lon="15.0128004"><ele>219.0</ele><time>2026-04-19T15:24:13.335Z</time></trkpt><trkpt lat="40.2801523" lon="15.0126509"><ele>216.66666666666669</ele><time>2026-04-19T15:24:15.334Z</time></trkpt><trkpt lat="40.280151" lon="15.0125623"><ele>214.33333333333334</ele><time>2026-04-19T15:24:16.334Z</time></trkpt><trkpt lat="40.2801514" lon="15.0124722"><ele>212.0</ele><time>2026-04-19T15:24:17.334Z</time></trkpt><trkpt lat="40.2801466" lon="15.0123841"><ele>209.66666666666669</ele><time>2026-04-19T15:24:18.335Z</time></trkpt><trkpt lat="40.2801451" lon="15.0122938"><ele>207.33333333333334</ele><time>2026-04-19T15:24:19.334Z</time></trkpt><trkpt lat="40.2801557" lon="15.0121161"><ele>205.0</ele><time>2026-04-19T15:24:21.334Z</time></trkpt><trkpt lat="40.280161" lon="15.0120268"><ele>202.66666666666669</ele><time>2026-04-19T15:24:22.334Z</time></trkpt><trkpt lat="40.2801638" lon="15.0119298"><ele>200.33333333333334</ele><time>2026-04-19T15:24:23.334Z</time></trkpt><trkpt lat="40.2801556" lon="15.011827"><ele>198.0</ele><time>2026-04-19T15:24:24.334Z</time></trkpt><trkpt lat="40.2801318" lon="15.0117295"><ele>195.16666666666666</ele><time>2026-04-19T15:24:25.334Z</time></trkpt><trkpt lat="40.2800869" lon="15.0116439"><ele>192.33333333333334</ele><time>2026-04-19T15:24:26.335Z</time></trkpt><trkpt lat="40.2800415" lon="15.0115694"><ele>189.5</ele><time>2026-04-19T15:24:27.335Z</time></trkpt><trkpt lat="40.280001" lon="15.0114967"><ele>186.66666666666669</ele><time>2026-04-19T15:24:28.335Z</time></trkpt><trkpt lat="40.2799338" lon="15.0113778"><ele>183.83333333333334</ele><time>2026-04-19T15:24:30.335Z</time></trkpt><trkpt lat="40.2798856" lon="15.0113115"><ele>181.0</ele><time>2026-04-19T15:24:32.335Z</time></trkpt><trkpt lat="40.2798102" lon="15.0113463"><ele>181.4</ele><time>2026-04-19T15:24:34.334Z</time></trkpt><trkpt lat="40.2797012" lon="15.0114495"><ele>181.8</ele><time>2026-04-19T15:24:36.335Z</time></trkpt><trkpt lat="40.2796357" lon="15.0114977"><ele>182.20000000000002</ele><time>2026-04-19T15:24:37.334Z</time></trkpt><trkpt lat="40.2795726" lon="15.0115437"><ele>182.60000000000002</ele><time>2026-04-19T15:24:38.335Z</time></trkpt><trkpt lat="40.2795141" lon="15.0115895"><ele>183.0</ele><time>2026-04-19T15:24:39.335Z</time></trkpt><trkpt lat="40.2794251" lon="15.0116692"><ele>183.0</ele><time>2026-04-19T15:24:41.335Z</time></trkpt><trkpt lat="40.2793654" lon="15.011712"><ele>183.0</ele><time>2026-04-19T15:24:43.334Z</time></trkpt><trkpt lat="40.2793187" lon="15.0116041"><ele>183.0</ele><time>2026-04-19T15:24:46.335Z</time></trkpt><trkpt lat="40.2793334" lon="15.0114488"><ele>183.0</ele><time>2026-04-19T15:24:48.334Z</time></trkpt><trkpt lat="40.2793498" lon="15.0113661"><ele>183.0</ele><time>2026-04-19T15:24:49.334Z</time></trkpt><trkpt lat="40.2793813" lon="15.0112543"><ele>183.0</ele><time>2026-04-19T15:24:51.335Z</time></trkpt><trkpt lat="40.279399" lon="15.011164"><ele>181.4</ele><time>2026-04-19T15:24:53.334Z</time></trkpt><trkpt lat="40.2793833" lon="15.0110592"><ele>179.8</ele><time>2026-04-19T15:24:56.335Z</time></trkpt><trkpt lat="40.2793547" lon="15.0109604"><ele>178.2</ele><time>2026-04-19T15:24:58.334Z</time></trkpt><trkpt lat="40.279308" lon="15.0108405"><ele>176.6</ele><time>2026-04-19T15:25:00.334Z</time></trkpt><trkpt lat="40.2792498" lon="15.0107216"><ele>175.0</ele><time>2026-04-19T15:25:02.334Z</time></trkpt><trkpt lat="40.2791912" lon="15.0105815"><ele>172.33333333333334</ele><time>2026-04-19T15:25:04.335Z</time></trkpt><trkpt lat="40.279133" lon="15.0104598"><ele>169.66666666666669</ele><time>2026-04-19T15:25:06.335Z</time></trkpt><trkpt lat="40.2790843" lon="15.0103507"><ele>167.0</ele><time>2026-04-19T15:25:08.335Z</time></trkpt><trkpt lat="40.2790348" lon="15.010299"><ele>164.33333333333334</ele><time>2026-04-19T15:25:10.335Z</time></trkpt><trkpt lat="40.2789619" lon="15.0103272"><ele>161.66666666666666</ele><time>2026-04-19T15:25:12.335Z</time></trkpt><trkpt lat="40.2788737" lon="15.0103788"><ele>159.0</ele><time>2026-04-19T15:25:14.334Z</time></trkpt><trkpt lat="40.2787969" lon="15.0104405"><ele>158.4</ele><time>2026-04-19T15:25:16.334Z</time></trkpt><trkpt lat="40.2787287" lon="15.0105103"><ele>157.8</ele><time>2026-04-19T15:25:18.334Z</time></trkpt><trkpt lat="40.278666" lon="15.0106138"><ele>157.2</ele><time>2026-04-19T15:25:20.334Z</time></trkpt><trkpt lat="40.2785962" lon="15.0107379"><ele>156.6</ele><time>2026-04-19T15:25:22.335Z</time></trkpt><trkpt lat="40.2785304" lon="15.0108652"><ele>156.0</ele><time>2026-04-19T15:25:24.334Z</time></trkpt><trkpt lat="40.278474" lon="15.0109897"><ele>156.0</ele><time>2026-04-19T15:25:26.334Z</time></trkpt><trkpt lat="40.2784369" lon="15.0110971"><ele>156.0</ele><time>2026-04-19T15:25:28.335Z</time></trkpt><trkpt lat="40.2783852" lon="15.0112058"><ele>156.0</ele><time>2026-04-19T15:25:30.334Z</time></trkpt><trkpt lat="40.2783459" lon="15.0113389"><ele>156.0</ele><time>2026-04-19T15:25:32.334Z</time></trkpt><trkpt lat="40.2783342" lon="15.0114236"><ele>156.0</ele><time>2026-04-19T15:25:33.334Z</time></trkpt><trkpt lat="40.2783174" lon="15.0115033"><ele>156.0</ele><time>2026-04-19T15:25:34.334Z</time></trkpt><trkpt lat="40.2782994" lon="15.0115855"><ele>157.0</ele><time>2026-04-19T15:25:35.334Z</time></trkpt><trkpt lat="40.2782749" lon="15.0117366"><ele>158.0</ele><time>2026-04-19T15:25:37.334Z</time></trkpt><trkpt lat="40.2782507" lon="15.0118664"><ele>159.0</ele><time>2026-04-19T15:25:39.334Z</time></trkpt><trkpt lat="40.2782301" lon="15.011984"><ele>160.0</ele><time>2026-04-19T15:25:41.334Z</time></trkpt><trkpt lat="40.2781808" lon="15.0120462"><ele>161.0</ele><time>2026-04-19T15:25:44.334Z</time></trkpt><trkpt lat="40.2781201" lon="15.011976"><ele>161.0</ele><time>2026-04-19T15:25:47.334Z</time></trkpt><trkpt lat="40.2781077" lon="15.0118696"><ele>161.0</ele><time>2026-04-19T15:25:49.334Z</time></trkpt><trkpt lat="40.2781198" lon="15.0117236"><ele>161.0</ele><time>2026-04-19T15:25:51.334Z</time></trkpt><trkpt lat="40.2781465" lon="15.011571"><ele>161.0</ele><time>2026-04-19T15:25:53.334Z</time></trkpt><trkpt lat="40.2781603" lon="15.0114147"><ele>161.0</ele><time>2026-04-19T15:25:55.334Z</time></trkpt><trkpt lat="40.2781644" lon="15.0112653"><ele>160.33333333333331</ele><time>2026-04-19T15:25:57.334Z</time></trkpt><trkpt lat="40.2781552" lon="15.0111191"><ele>159.66666666666666</ele><time>2026-04-19T15:25:59.334Z</time></trkpt><trkpt lat="40.2781471" lon="15.0110051"><ele>159.0</ele><time>2026-04-19T15:26:01.335Z</time></trkpt><trkpt lat="40.2781309" lon="15.0109045"><ele>158.33333333333334</ele><time>2026-04-19T15:26:04.334Z</time></trkpt><trkpt lat="40.2780654" lon="15.0108917"><ele>157.66666666666669</ele><time>2026-04-19T15:26:08.335Z</time></trkpt><trkpt lat="40.2779982" lon="15.010875"><ele>157.0</ele><time>2026-04-19T15:26:10.334Z</time></trkpt><trkpt lat="40.2779468" lon="15.0108238"><ele>157.0</ele><time>2026-04-19T15:26:13.334Z</time></trkpt><trkpt lat="40.2778826" lon="15.0108419"><ele>157.0</ele><time>2026-04-19T15:27:02.334Z</time></trkpt><trkpt lat="40.2779618" lon="15.0108214"><ele>157.0</ele><time>2026-04-19T15:27:16.334Z</time></trkpt><trkpt lat="40.278013" lon="15.0108849"><ele>157.0</ele><time>2026-04-19T15:27:19.334Z</time></trkpt><trkpt lat="40.2781018" lon="15.0108956"><ele>157.0</ele><time>2026-04-19T15:27:22.334Z</time></trkpt><trkpt lat="40.2781347" lon="15.0110156"><ele>157.0</ele><time>2026-04-19T15:27:25.334Z</time></trkpt><trkpt lat="40.2781515" lon="15.0111831"><ele>156.83333333333334</ele><time>2026-04-19T15:27:27.335Z</time></trkpt><trkpt lat="40.2781557" lon="15.0112925"><ele>156.66666666666669</ele><time>2026-04-19T15:27:28.334Z</time></trkpt><trkpt lat="40.2781569" lon="15.0114328"><ele>156.5</ele><time>2026-04-19T15:27:29.334Z</time></trkpt><trkpt lat="40.2781532" lon="15.0115574"><ele>156.33333333333334</ele><time>2026-04-19T15:27:30.335Z</time></trkpt><trkpt lat="40.2781472" lon="15.0116684"><ele>156.16666666666666</ele><time>2026-04-19T15:27:31.335Z</time></trkpt><trkpt lat="40.2781398" lon="15.0117657"><ele>156.0</ele><time>2026-04-19T15:27:32.334Z</time></trkpt><trkpt lat="40.2781287" lon="15.0119155"><ele>156.83333333333334</ele><time>2026-04-19T15:27:34.334Z</time></trkpt><trkpt lat="40.2781113" lon="15.0120002"><ele>157.66666666666666</ele><time>2026-04-19T15:28:40.333Z</time></trkpt><trkpt lat="40.2780452" lon="15.0120584"><ele>158.5</ele><time>2026-04-19T15:28:44.334Z</time></trkpt><trkpt lat="40.2779706" lon="15.0121352"><ele>159.33333333333331</ele><time>2026-04-19T15:28:47.334Z</time></trkpt><trkpt lat="40.277932" lon="15.0120298"><ele>160.16666666666666</ele><time>2026-04-19T15:28:58.334Z</time></trkpt><trkpt lat="40.2778869" lon="15.011902"><ele>161.0</ele><time>2026-04-19T15:29:00.335Z</time></trkpt><trkpt lat="40.2778771" lon="15.0117928"><ele>161.5</ele><time>2026-04-19T15:29:02.334Z</time></trkpt><trkpt lat="40.2779007" lon="15.0116816"><ele>162.0</ele><time>2026-04-19T15:29:04.335Z</time></trkpt><trkpt lat="40.2779015" lon="15.0115775"><ele>162.5</ele><time>2026-04-19T15:29:06.333Z</time></trkpt><trkpt lat="40.2778936" lon="15.0114727"><ele>163.0</ele><time>2026-04-19T15:29:08.334Z</time></trkpt><trkpt lat="40.2778803" lon="15.0113808"><ele>163.5</ele><time>2026-04-19T15:29:10.333Z</time></trkpt><trkpt lat="40.2778564" lon="15.0112864"><ele>164.0</ele><time>2026-04-19T15:29:12.334Z</time></trkpt><trkpt lat="40.2778284" lon="15.0112069"><ele>162.99999999999997</ele><time>2026-04-19T15:29:14.334Z</time></trkpt><trkpt lat="40.2778179" lon="15.0111055"><ele>162.0</ele><time>2026-04-19T15:29:17.333Z</time></trkpt><trkpt lat="40.2777855" lon="15.011025"><ele>161.0</ele><time>2026-04-19T15:29:21.334Z</time></trkpt><trkpt lat="40.2777143" lon="15.0109571"><ele>160.0</ele><time>2026-04-19T15:29:24.333Z</time></trkpt><trkpt lat="40.2776514" lon="15.0109151"><ele>159.0</ele><time>2026-04-19T15:29:26.333Z</time></trkpt><trkpt lat="40.2775906" lon="15.0108762"><ele>157.99999999999997</ele><time>2026-04-19T15:29:29.334Z</time></trkpt><trkpt lat="40.2776222" lon="15.0108042"><ele>157.0</ele><time>2026-04-19T15:30:17.333Z</time></trkpt><trkpt lat="40.2776915" lon="15.0108047"><ele>156.99999999999997</ele><time>2026-04-19T15:30:19.333Z</time></trkpt><trkpt lat="40.277764" lon="15.0108075"><ele>157.0</ele><time>2026-04-19T15:30:21.333Z</time></trkpt><trkpt lat="40.2778286" lon="15.0108245"><ele>157.0</ele><time>2026-04-19T15:30:23.333Z</time></trkpt><trkpt lat="40.277879" lon="15.0107729"><ele>157.0</ele><time>2026-04-19T15:31:01.335Z</time></trkpt><trkpt lat="40.2778706" lon="15.0106793"><ele>157.0</ele><time>2026-04-19T15:31:19.333Z</time></trkpt><trkpt lat="40.2778612" lon="15.0105917"><ele>156.99999999999997</ele><time>2026-04-19T15:44:08.331Z</time></trkpt><trkpt lat="40.2778584" lon="15.0104817"><ele>157.0</ele><time>2026-04-19T15:44:11.332Z</time></trkpt><trkpt lat="40.2778611" lon="15.0103882"><ele>157.0</ele><time>2026-04-19T15:44:14.331Z</time></trkpt><trkpt lat="40.2778764" lon="15.0102999"><ele>157.0</ele><time>2026-04-19T15:44:37.332Z</time></trkpt><trkpt lat="40.277868" lon="15.0101919"><ele>157.0</ele><time>2026-04-19T15:44:54.331Z</time></trkpt><trkpt lat="40.2778581" lon="15.0100863"><ele>157.0</ele><time>2026-04-19T15:44:58.331Z</time></trkpt><trkpt lat="40.2778584" lon="15.0099789"><ele>157.0</ele><time>2026-04-19T15:45:00.332Z</time></trkpt><trkpt lat="40.2778412" lon="15.0098811"><ele>157.0</ele><time>2026-04-19T15:45:02.332Z</time></trkpt><trkpt lat="40.2778014" lon="15.0097909"><ele>158.66666666666669</ele><time>2026-04-19T15:45:04.332Z</time></trkpt><trkpt lat="40.2777424" lon="15.0097139"><ele>160.33333333333334</ele><time>2026-04-19T15:45:06.332Z</time></trkpt><trkpt lat="40.2776776" lon="15.0096477"><ele>162.0</ele><time>2026-04-19T15:45:08.331Z</time></trkpt><trkpt lat="40.2776107" lon="15.009606"><ele>163.66666666666666</ele><time>2026-04-19T15:45:10.331Z</time></trkpt><trkpt lat="40.2775879" lon="15.0095008"><ele>165.33333333333331</ele><time>2026-04-19T15:45:13.332Z</time></trkpt><trkpt lat="40.2775912" lon="15.0094174"><ele>167.0</ele><time>2026-04-19T15:45:22.331Z</time></trkpt><trkpt lat="40.2776493" lon="15.0094684"><ele>167.0</ele><time>2026-04-19T15:47:45.331Z</time></trkpt><trkpt lat="40.2775849" lon="15.0095026"><ele>167.0</ele><time>2026-04-19T15:48:22.331Z</time></trkpt><trkpt lat="40.277521" lon="15.0094635"><ele>167.0</ele><time>2026-04-19T15:48:24.331Z</time></trkpt><trkpt lat="40.2774339" lon="15.0094069"><ele>167.0</ele><time>2026-04-19T15:48:26.331Z</time></trkpt><trkpt lat="40.2773561" lon="15.0093528"><ele>167.0</ele><time>2026-04-19T15:48:28.332Z</time></trkpt><trkpt lat="40.2773268" lon="15.0092441"><ele>167.0</ele><time>2026-04-19T15:48:31.331Z</time></trkpt><trkpt lat="40.2773318" lon="15.0091613"><ele>170.33333333333331</ele><time>2026-04-19T15:48:33.331Z</time></trkpt><trkpt lat="40.2773869" lon="15.0090799"><ele>173.66666666666666</ele><time>2026-04-19T15:48:36.331Z</time></trkpt><trkpt lat="40.2774631" lon="15.0090208"><ele>177.0</ele><time>2026-04-19T15:48:38.331Z</time></trkpt><trkpt lat="40.2775465" lon="15.0089731"><ele>180.33333333333334</ele><time>2026-04-19T15:48:40.331Z</time></trkpt><trkpt lat="40.2776076" lon="15.0089312"><ele>183.66666666666669</ele><time>2026-04-19T15:48:42.33Z</time></trkpt><trkpt lat="40.2776768" lon="15.0089014"><ele>187.0</ele><time>2026-04-19T15:48:44.332Z</time></trkpt><trkpt lat="40.2777497" lon="15.0088696"><ele>187.0</ele><time>2026-04-19T15:48:46.332Z</time></trkpt><trkpt lat="40.2778154" lon="15.0088396"><ele>187.0</ele><time>2026-04-19T15:48:48.331Z</time></trkpt><trkpt lat="40.27788" lon="15.0088128"><ele>187.0</ele><time>2026-04-19T15:48:50.33Z</time></trkpt><trkpt lat="40.2779455" lon="15.0087909"><ele>187.0</ele><time>2026-04-19T15:48:52.332Z</time></trkpt><trkpt lat="40.2780154" lon="15.008765"><ele>187.0</ele><time>2026-04-19T15:48:54.331Z</time></trkpt><trkpt lat="40.2780791" lon="15.0087398"><ele>187.0</ele><time>2026-04-19T15:48:56.331Z</time></trkpt><trkpt lat="40.2781505" lon="15.0087145"><ele>187.0</ele><time>2026-04-19T15:48:58.331Z</time></trkpt><trkpt lat="40.2782166" lon="15.0086939"><ele>183.28571428571428</ele><time>2026-04-19T15:49:00.331Z</time></trkpt><trkpt lat="40.278285" lon="15.0086679"><ele>179.57142857142858</ele><time>2026-04-19T15:49:02.33Z</time></trkpt><trkpt lat="40.2783534" lon="15.0086466"><ele>175.85714285714286</ele><time>2026-04-19T15:49:04.331Z</time></trkpt><trkpt lat="40.2784228" lon="15.0086482"><ele>172.14285714285714</ele><time>2026-04-19T15:49:07.332Z</time></trkpt><trkpt lat="40.2784864" lon="15.0086721"><ele>168.42857142857144</ele><time>2026-04-19T15:49:09.331Z</time></trkpt><trkpt lat="40.278559" lon="15.0086933"><ele>164.71428571428572</ele><time>2026-04-19T15:49:11.33Z</time></trkpt><trkpt lat="40.2786307" lon="15.0087083"><ele>161.0</ele><time>2026-04-19T15:49:13.331Z</time></trkpt><trkpt lat="40.278703" lon="15.0087273"><ele>161.0</ele><time>2026-04-19T15:49:16.331Z</time></trkpt><trkpt lat="40.2787423" lon="15.0088087"><ele>161.0</ele><time>2026-04-19T15:49:19.331Z</time></trkpt><trkpt lat="40.2787405" lon="15.0088919"><ele>161.0</ele><time>2026-04-19T15:49:21.33Z</time></trkpt><trkpt lat="40.2787246" lon="15.0090029"><ele>161.0</ele><time>2026-04-19T15:49:24.331Z</time></trkpt><trkpt lat="40.278737" lon="15.0091148"><ele>161.0</ele><time>2026-04-19T15:49:27.33Z</time></trkpt><trkpt lat="40.278768" lon="15.0091951"><ele>161.0</ele><time>2026-04-19T15:49:30.331Z</time></trkpt><trkpt lat="40.2788082" lon="15.0092652"><ele>161.0</ele><time>2026-04-19T15:49:33.331Z</time></trkpt><trkpt lat="40.2788681" lon="15.0093197"><ele>159.42857142857142</ele><time>2026-04-19T15:49:36.331Z</time></trkpt><trkpt lat="40.2789329" lon="15.0093135"><ele>157.85714285714286</ele><time>2026-04-19T15:49:48.332Z</time></trkpt><trkpt lat="40.2789783" lon="15.0092401"><ele>156.28571428571428</ele><time>2026-04-19T15:49:51.33Z</time></trkpt><trkpt lat="40.2790287" lon="15.0091562"><ele>154.71428571428572</ele><time>2026-04-19T15:49:56.332Z</time></trkpt><trkpt lat="40.2790905" lon="15.0090941"><ele>153.14285714285714</ele><time>2026-04-19T15:49:59.331Z</time></trkpt><trkpt lat="40.2791461" lon="15.0090148"><ele>151.57142857142856</ele><time>2026-04-19T15:50:03.331Z</time></trkpt><trkpt lat="40.2791772" lon="15.008937"><ele>150.0</ele><time>2026-04-19T15:51:14.33Z</time></trkpt><trkpt lat="40.2792294" lon="15.0088808"><ele>149.28571428571428</ele><time>2026-04-19T15:51:19.33Z</time></trkpt><trkpt lat="40.2792907" lon="15.0088181"><ele>148.57142857142856</ele><time>2026-04-19T15:51:22.33Z</time></trkpt><trkpt lat="40.2793422" lon="15.0087676"><ele>147.85714285714286</ele><time>2026-04-19T15:51:25.331Z</time></trkpt><trkpt lat="40.2794047" lon="15.0087253"><ele>147.14285714285714</ele><time>2026-04-19T15:52:59.33Z</time></trkpt><trkpt lat="40.2794008" lon="15.0086412"><ele>146.42857142857144</ele><time>2026-04-19T15:53:03.33Z</time></trkpt><trkpt lat="40.2794414" lon="15.0085558"><ele>145.71428571428572</ele><time>2026-04-19T15:53:08.331Z</time></trkpt><trkpt lat="40.2794894" lon="15.0084858"><ele>145.0</ele><time>2026-04-19T15:53:10.33Z</time></trkpt><trkpt lat="40.279531" lon="15.0084235"><ele>145.0</ele><time>2026-04-19T15:53:12.33Z</time></trkpt><trkpt lat="40.2795797" lon="15.0083613"><ele>145.0</ele><time>2026-04-19T15:53:14.33Z</time></trkpt><trkpt lat="40.2796328" lon="15.0083098"><ele>145.0</ele><time>2026-04-19T15:53:16.331Z</time></trkpt><trkpt lat="40.2796806" lon="15.0082511"><ele>145.0</ele><time>2026-04-19T15:53:19.33Z</time></trkpt><trkpt lat="40.2797554" lon="15.008176"><ele>145.0</ele><time>2026-04-19T15:53:22.331Z</time></trkpt><trkpt lat="40.279826" lon="15.0081118"><ele>145.0</ele><time>2026-04-19T15:53:25.33Z</time></trkpt><trkpt lat="40.2798533" lon="15.0080309"><ele>145.0</ele><time>2026-04-19T15:58:14.329Z</time></trkpt><trkpt lat="40.2798934" lon="15.0079625"><ele>143.71428571428572</ele><time>2026-04-19T15:58:56.33Z</time></trkpt><trkpt lat="40.2799523" lon="15.0079221"><ele>142.42857142857144</ele><time>2026-04-19T16:00:57.33Z</time></trkpt><trkpt lat="40.2800184" lon="15.0079186"><ele>141.14285714285714</ele><time>2026-04-19T16:01:14.329Z</time></trkpt><trkpt lat="40.2800884" lon="15.0078959"><ele>139.85714285714286</ele><time>2026-04-19T16:01:22.329Z</time></trkpt><trkpt lat="40.2801529" lon="15.0078535"><ele>138.57142857142856</ele><time>2026-04-19T16:01:27.33Z</time></trkpt><trkpt lat="40.2802126" lon="15.0078258"><ele>137.28571428571428</ele><time>2026-04-19T16:03:59.329Z</time></trkpt><trkpt lat="40.2802768" lon="15.0078413"><ele>136.0</ele><time>2026-04-19T16:04:03.33Z</time></trkpt><trkpt lat="40.2803404" lon="15.0078565"><ele>135.99999999999997</ele><time>2026-04-19T16:04:07.329Z</time></trkpt><trkpt lat="40.2802733" lon="15.0078906"><ele>136.0</ele><time>2026-04-19T16:04:20.329Z</time></trkpt><trkpt lat="40.2802278" lon="15.0079551"><ele>136.0</ele><time>2026-04-19T16:04:27.329Z</time></trkpt><trkpt lat="40.280242" lon="15.0080405"><ele>136.0</ele><time>2026-04-19T16:04:31.329Z</time></trkpt><trkpt lat="40.2803006" lon="15.0080949"><ele>136.0</ele><time>2026-04-19T16:04:40.329Z</time></trkpt><trkpt lat="40.2802964" lon="15.0081855"><ele>135.99999999999997</ele><time>2026-04-19T16:04:45.329Z</time></trkpt><trkpt lat="40.2802502" lon="15.0082748"><ele>136.0</ele><time>2026-04-19T16:04:49.329Z</time></trkpt><trkpt lat="40.280258" lon="15.0083828"><ele>136.5</ele><time>2026-04-19T16:04:51.33Z</time></trkpt><trkpt lat="40.280276" lon="15.0085001"><ele>137.0</ele><time>2026-04-19T16:04:53.329Z</time></trkpt><trkpt lat="40.2802884" lon="15.0086303"><ele>137.5</ele><time>2026-04-19T16:04:55.329Z</time></trkpt><trkpt lat="40.280246" lon="15.0087127"><ele>138.0</ele><time>2026-04-19T16:04:57.33Z</time></trkpt><trkpt lat="40.2802172" lon="15.0088152"><ele>138.5</ele><time>2026-04-19T16:04:59.329Z</time></trkpt><trkpt lat="40.2802642" lon="15.0089202"><ele>139.0</ele><time>2026-04-19T16:05:01.329Z</time></trkpt><trkpt lat="40.2803189" lon="15.0090202"><ele>139.0</ele><time>2026-04-19T16:05:03.33Z</time></trkpt><trkpt lat="40.2803739" lon="15.0091145"><ele>139.0</ele><time>2026-04-19T16:05:05.33Z</time></trkpt><trkpt lat="40.2804117" lon="15.009184"><ele>139.0</ele><time>2026-04-19T16:05:07.329Z</time></trkpt><trkpt lat="40.2804193" lon="15.0092799"><ele>139.0</ele><time>2026-04-19T16:05:10.329Z</time></trkpt><trkpt lat="40.2803402" lon="15.0093636"><ele>139.0</ele><time>2026-04-19T16:05:13.329Z</time></trkpt><trkpt lat="40.2803098" lon="15.0094625"><ele>139.0</ele><time>2026-04-19T16:05:15.33Z</time></trkpt><trkpt lat="40.2803256" lon="15.0095473"><ele>140.66666666666669</ele><time>2026-04-19T16:05:17.329Z</time></trkpt><trkpt lat="40.2804096" lon="15.0096166"><ele>142.33333333333334</ele><time>2026-04-19T16:05:20.33Z</time></trkpt><trkpt lat="40.2804742" lon="15.0096278"><ele>144.0</ele><time>2026-04-19T16:05:22.33Z</time></trkpt><trkpt lat="40.2805427" lon="15.0095626"><ele>145.66666666666666</ele><time>2026-04-19T16:05:25.329Z</time></trkpt><trkpt lat="40.2805864" lon="15.0094774"><ele>147.33333333333331</ele><time>2026-04-19T16:05:27.329Z</time></trkpt><trkpt lat="40.2805852" lon="15.0093747"><ele>149.0</ele><time>2026-04-19T16:05:29.329Z</time></trkpt><trkpt lat="40.2805791" lon="15.009277"><ele>149.16666666666666</ele><time>2026-04-19T16:05:31.33Z</time></trkpt><trkpt lat="40.280555" lon="15.009159"><ele>149.33333333333331</ele><time>2026-04-19T16:05:34.329Z</time></trkpt><trkpt lat="40.28053" lon="15.0090764"><ele>149.5</ele><time>2026-04-19T16:05:36.33Z</time></trkpt><trkpt lat="40.2805293" lon="15.0089817"><ele>149.66666666666666</ele><time>2026-04-19T16:05:38.329Z</time></trkpt><trkpt lat="40.2805723" lon="15.0088671"><ele>149.83333333333334</ele><time>2026-04-19T16:05:40.329Z</time></trkpt><trkpt lat="40.2806181" lon="15.0087581"><ele>150.0</ele><time>2026-04-19T16:05:42.329Z</time></trkpt><trkpt lat="40.2806832" lon="15.0086263"><ele>150.0</ele><time>2026-04-19T16:05:44.33Z</time></trkpt><trkpt lat="40.2807141" lon="15.0085541"><ele>150.0</ele><time>2026-04-19T16:05:45.329Z</time></trkpt><trkpt lat="40.2807774" lon="15.0084596"><ele>150.0</ele><time>2026-04-19T16:05:47.329Z</time></trkpt><trkpt lat="40.2808194" lon="15.0083933"><ele>150.0</ele><time>2026-04-19T16:05:49.33Z</time></trkpt><trkpt lat="40.2808884" lon="15.008318"><ele>150.0</ele><time>2026-04-19T16:05:51.329Z</time></trkpt><trkpt lat="40.2809649" lon="15.0082688"><ele>150.0</ele><time>2026-04-19T16:05:53.329Z</time></trkpt><trkpt lat="40.281057" lon="15.0082371"><ele>150.0</ele><time>2026-04-19T16:05:55.33Z</time></trkpt><trkpt lat="40.2811379" lon="15.0082269"><ele>150.0</ele><time>2026-04-19T16:05:57.329Z</time></trkpt><trkpt lat="40.2812029" lon="15.008257"><ele>150.0</ele><time>2026-04-19T16:05:59.329Z</time></trkpt><trkpt lat="40.2812421" lon="15.0083369"><ele>150.0</ele><time>2026-04-19T16:06:14.329Z</time></trkpt><trkpt lat="40.2812682" lon="15.0084384"><ele>150.0</ele><time>2026-04-19T16:06:16.329Z</time></trkpt><trkpt lat="40.2812773" lon="15.0085409"><ele>150.0</ele><time>2026-04-19T16:06:18.328Z</time></trkpt><trkpt lat="40.2812696" lon="15.0086768"><ele>150.0</ele><time>2026-04-19T16:06:20.328Z</time></trkpt><trkpt lat="40.2812778" lon="15.0088023"><ele>150.0</ele><time>2026-04-19T16:06:22.328Z</time></trkpt><trkpt lat="40.2812572" lon="15.008911"><ele>150.0</ele><time>2026-04-19T16:06:24.329Z</time></trkpt><trkpt lat="40.2813106" lon="15.0090102"><ele>150.0</ele><time>2026-04-19T16:06:26.329Z</time></trkpt><trkpt lat="40.281345" lon="15.0091154"><ele>150.0</ele><time>2026-04-19T16:06:28.328Z</time></trkpt><trkpt lat="40.2813409" lon="15.0092105"><ele>150.0</ele><time>2026-04-19T16:06:29.329Z</time></trkpt><trkpt lat="40.2813411" lon="15.0093141"><ele>152.4</ele><time>2026-04-19T16:06:30.329Z</time></trkpt><trkpt lat="40.2813442" lon="15.0094108"><ele>154.8</ele><time>2026-04-19T16:06:31.328Z</time></trkpt><trkpt lat="40.2813851" lon="15.0095197"><ele>157.2</ele><time>2026-04-19T16:06:33.328Z</time></trkpt><trkpt lat="40.281489" lon="15.0095745"><ele>159.6</ele><time>2026-04-19T16:06:35.328Z</time></trkpt><trkpt lat="40.2815563" lon="15.0096389"><ele>162.0</ele><time>2026-04-19T16:06:37.328Z</time></trkpt><trkpt lat="40.2815575" lon="15.0097855"><ele>164.16666666666666</ele><time>2026-04-19T16:06:40.328Z</time></trkpt><trkpt lat="40.2815631" lon="15.0098759"><ele>166.33333333333334</ele><time>2026-04-19T16:06:41.329Z</time></trkpt><trkpt lat="40.2815826" lon="15.0099614"><ele>168.5</ele><time>2026-04-19T16:06:42.329Z</time></trkpt><trkpt lat="40.2816116" lon="15.0100611"><ele>170.66666666666669</ele><time>2026-04-19T16:06:43.328Z</time></trkpt><trkpt lat="40.2816536" lon="15.010175"><ele>172.83333333333334</ele><time>2026-04-19T16:06:44.329Z</time></trkpt><trkpt lat="40.2816958" lon="15.0102942"><ele>175.0</ele><time>2026-04-19T16:06:45.328Z</time></trkpt><trkpt lat="40.2817193" lon="15.010399"><ele>177.2</ele><time>2026-04-19T16:06:46.328Z</time></trkpt><trkpt lat="40.2817396" lon="15.0105058"><ele>179.4</ele><time>2026-04-19T16:06:47.329Z</time></trkpt><trkpt lat="40.281738" lon="15.0106137"><ele>181.60000000000002</ele><time>2026-04-19T16:06:48.329Z</time></trkpt><trkpt lat="40.2817283" lon="15.0107407"><ele>183.8</ele><time>2026-04-19T16:06:49.328Z</time></trkpt><trkpt lat="40.2817121" lon="15.0108776"><ele>186.0</ele><time>2026-04-19T16:06:50.328Z</time></trkpt><trkpt lat="40.2816867" lon="15.0110177"><ele>187.8</ele><time>2026-04-19T16:06:51.329Z</time></trkpt><trkpt lat="40.2816647" lon="15.0111401"><ele>189.60000000000002</ele><time>2026-04-19T16:06:52.328Z</time></trkpt><trkpt lat="40.2816275" lon="15.0112389"><ele>191.4</ele><time>2026-04-19T16:06:53.328Z</time></trkpt><trkpt lat="40.2815832" lon="15.0113455"><ele>193.2</ele><time>2026-04-19T16:06:54.328Z</time></trkpt><trkpt lat="40.2815485" lon="15.011463"><ele>195.0</ele><time>2026-04-19T16:06:55.329Z</time></trkpt><trkpt lat="40.2815177" lon="15.0115761"><ele>194.5</ele><time>2026-04-19T16:06:56.328Z</time></trkpt><trkpt lat="40.2814803" lon="15.0116779"><ele>194.0</ele><time>2026-04-19T16:06:57.328Z</time></trkpt><trkpt lat="40.2814459" lon="15.0117698"><ele>193.5</ele><time>2026-04-19T16:06:58.328Z</time></trkpt><trkpt lat="40.2814008" lon="15.0118662"><ele>193.0</ele><time>2026-04-19T16:06:59.328Z</time></trkpt><trkpt lat="40.2813356" lon="15.0119648"><ele>192.5</ele><time>2026-04-19T16:07:00.329Z</time></trkpt><trkpt lat="40.2812827" lon="15.0120513"><ele>192.0</ele><time>2026-04-19T16:07:01.328Z</time></trkpt><trkpt lat="40.281232" lon="15.0121325"><ele>192.0</ele><time>2026-04-19T16:07:02.328Z</time></trkpt><trkpt lat="40.2811947" lon="15.0122153"><ele>192.0</ele><time>2026-04-19T16:07:03.329Z</time></trkpt><trkpt lat="40.2811748" lon="15.0123472"><ele>192.0</ele><time>2026-04-19T16:07:05.328Z</time></trkpt><trkpt lat="40.2812304" lon="15.0124957"><ele>192.0</ele><time>2026-04-19T16:07:07.328Z</time></trkpt><trkpt lat="40.2812703" lon="15.0126238"><ele>192.0</ele><time>2026-04-19T16:07:09.328Z</time></trkpt><trkpt lat="40.2812357" lon="15.012708"><ele>195.6</ele><time>2026-04-19T16:07:11.328Z</time></trkpt><trkpt lat="40.2811337" lon="15.0127641"><ele>199.2</ele><time>2026-04-19T16:07:13.328Z</time></trkpt><trkpt lat="40.2810512" lon="15.0127636"><ele>202.8</ele><time>2026-04-19T16:07:14.328Z</time></trkpt><trkpt lat="40.2809654" lon="15.0127608"><ele>206.4</ele><time>2026-04-19T16:07:15.328Z</time></trkpt><trkpt lat="40.2808667" lon="15.0127605"><ele>210.0</ele><time>2026-04-19T16:07:16.328Z</time></trkpt><trkpt lat="40.2807702" lon="15.0127655"><ele>210.0</ele><time>2026-04-19T16:07:17.33Z</time></trkpt><trkpt lat="40.2806853" lon="15.0127732"><ele>210.0</ele><time>2026-04-19T16:07:18.329Z</time></trkpt><trkpt lat="40.2806121" lon="15.0127879"><ele>210.0</ele><time>2026-04-19T16:07:19.328Z</time></trkpt><trkpt lat="40.2805351" lon="15.0128119"><ele>210.0</ele><time>2026-04-19T16:07:20.329Z</time></trkpt><trkpt lat="40.2804596" lon="15.0128226"><ele>210.0</ele><time>2026-04-19T16:07:21.328Z</time></trkpt><trkpt lat="40.2803852" lon="15.0128298"><ele>210.0</ele><time>2026-04-19T16:07:22.328Z</time></trkpt><trkpt lat="40.2802951" lon="15.0128095"><ele>210.33333333333334</ele><time>2026-04-19T16:07:24.328Z</time></trkpt><trkpt lat="40.280227" lon="15.012798"><ele>210.66666666666669</ele><time>2026-04-19T16:07:27.329Z</time></trkpt><trkpt lat="40.2801644" lon="15.0128569"><ele>211.0</ele><time>2026-04-19T16:08:30.329Z</time></trkpt><trkpt lat="40.2801352" lon="15.0129528"><ele>211.33333333333334</ele><time>2026-04-19T16:08:32.328Z</time></trkpt><trkpt lat="40.2801916" lon="15.0130457"><ele>211.66666666666669</ele><time>2026-04-19T16:08:34.327Z</time></trkpt><trkpt lat="40.2802553" lon="15.0131848"><ele>212.0</ele><time>2026-04-19T16:08:36.328Z</time></trkpt><trkpt lat="40.2802852" lon="15.0132739"><ele>214.33333333333334</ele><time>2026-04-19T16:08:37.328Z</time></trkpt><trkpt lat="40.2803147" lon="15.0133758"><ele>216.66666666666669</ele><time>2026-04-19T16:08:38.328Z</time></trkpt><trkpt lat="40.2803486" lon="15.0134698"><ele>219.0</ele><time>2026-04-19T16:08:39.328Z</time></trkpt><trkpt lat="40.2803892" lon="15.0135589"><ele>221.33333333333331</ele><time>2026-04-19T16:08:40.328Z</time></trkpt><trkpt lat="40.2804337" lon="15.0136384"><ele>223.66666666666666</ele><time>2026-04-19T16:08:41.328Z</time></trkpt><trkpt lat="40.2804823" lon="15.013708"><ele>226.0</ele><time>2026-04-19T16:08:42.328Z</time></trkpt><trkpt lat="40.280529" lon="15.0137777"><ele>225.99999999999997</ele><time>2026-04-19T16:08:43.329Z</time></trkpt><trkpt lat="40.2805722" lon="15.0138569"><ele>226.0</ele><time>2026-04-19T16:08:44.33Z</time></trkpt><trkpt lat="40.2806115" lon="15.013938"><ele>226.0</ele><time>2026-04-19T16:08:45.328Z</time></trkpt><trkpt lat="40.2806509" lon="15.0140227"><ele>226.0</ele><time>2026-04-19T16:08:46.328Z</time></trkpt><trkpt lat="40.280699" lon="15.0141005"><ele>225.99999999999997</ele><time>2026-04-19T16:08:47.327Z</time></trkpt><trkpt lat="40.2807598" lon="15.0142376"><ele>226.0</ele><time>2026-04-19T16:08:49.328Z</time></trkpt><trkpt lat="40.2807814" lon="15.0143163"><ele>229.16666666666666</ele><time>2026-04-19T16:08:50.328Z</time></trkpt><trkpt lat="40.2808126" lon="15.0143994"><ele>232.33333333333331</ele><time>2026-04-19T16:08:51.329Z</time></trkpt><trkpt lat="40.2808595" lon="15.0144827"><ele>235.5</ele><time>2026-04-19T16:08:52.328Z</time></trkpt><trkpt lat="40.2809059" lon="15.014568"><ele>238.66666666666669</ele><time>2026-04-19T16:08:53.327Z</time></trkpt><trkpt lat="40.2809481" lon="15.0146649"><ele>241.83333333333334</ele><time>2026-04-19T16:08:54.328Z</time></trkpt><trkpt lat="40.2809854" lon="15.0147694"><ele>245.0</ele><time>2026-04-19T16:08:55.328Z</time></trkpt><trkpt lat="40.2810226" lon="15.0148856"><ele>246.8</ele><time>2026-04-19T16:08:56.328Z</time></trkpt><trkpt lat="40.2810607" lon="15.0150087"><ele>248.6</ele><time>2026-04-19T16:08:57.328Z</time></trkpt><trkpt lat="40.2810959" lon="15.0151074"><ele>250.39999999999998</ele><time>2026-04-19T16:08:58.328Z</time></trkpt><trkpt lat="40.2811316" lon="15.0151975"><ele>252.2</ele><time>2026-04-19T16:08:59.328Z</time></trkpt><trkpt lat="40.281196" lon="15.0153285"><ele>254.0</ele><time>2026-04-19T16:09:01.329Z</time></trkpt><trkpt lat="40.2812951" lon="15.0153662"><ele>254.00000000000003</ele><time>2026-04-19T16:09:03.328Z</time></trkpt><trkpt lat="40.2813645" lon="15.0153649"><ele>254.0</ele><time>2026-04-19T16:09:04.328Z</time></trkpt><trkpt lat="40.2814349" lon="15.0153568"><ele>254.0</ele><time>2026-04-19T16:09:05.329Z</time></trkpt><trkpt lat="40.2815183" lon="15.0153348"><ele>254.0</ele><time>2026-04-19T16:09:06.328Z</time></trkpt><trkpt lat="40.2816018" lon="15.0153129"><ele>254.00000000000003</ele><time>2026-04-19T16:09:07.328Z</time></trkpt><trkpt lat="40.2816737" lon="15.0152761"><ele>254.0</ele><time>2026-04-19T16:09:08.329Z</time></trkpt><trkpt lat="40.2817379" lon="15.0152245"><ele>253.16666666666669</ele><time>2026-04-19T16:09:09.329Z</time></trkpt><trkpt lat="40.2817976" lon="15.0151535"><ele>252.33333333333334</ele><time>2026-04-19T16:09:10.328Z</time></trkpt><trkpt lat="40.2818569" lon="15.0150588"><ele>251.5</ele><time>2026-04-19T16:09:11.328Z</time></trkpt><trkpt lat="40.2819036" lon="15.0149609"><ele>250.66666666666669</ele><time>2026-04-19T16:09:12.327Z</time></trkpt><trkpt lat="40.2819481" lon="15.0148702"><ele>249.83333333333334</ele><time>2026-04-19T16:09:13.328Z</time></trkpt><trkpt lat="40.2819947" lon="15.0147725"><ele>249.0</ele><time>2026-04-19T16:09:14.329Z</time></trkpt><trkpt lat="40.2820374" lon="15.0146685"><ele>249.0</ele><time>2026-04-19T16:09:15.327Z</time></trkpt><trkpt lat="40.2820778" lon="15.0145669"><ele>249.0</ele><time>2026-04-19T16:09:16.328Z</time></trkpt><trkpt lat="40.2821236" lon="15.0144636"><ele>249.0</ele><time>2026-04-19T16:09:17.329Z</time></trkpt><trkpt lat="40.2821636" lon="15.0143786"><ele>249.0</ele><time>2026-04-19T16:09:18.328Z</time></trkpt><trkpt lat="40.2822123" lon="15.0142921"><ele>249.0</ele><time>2026-04-19T16:09:19.328Z</time></trkpt><trkpt lat="40.2822733" lon="15.014214"><ele>249.0</ele><time>2026-04-19T16:09:20.329Z</time></trkpt><trkpt lat="40.2823328" lon="15.0141349"><ele>251.5</ele><time>2026-04-19T16:09:21.328Z</time></trkpt><trkpt lat="40.2823851" lon="15.0140618"><ele>254.0</ele><time>2026-04-19T16:09:22.328Z</time></trkpt><trkpt lat="40.2824295" lon="15.0139915"><ele>256.5</ele><time>2026-04-19T16:09:23.328Z</time></trkpt><trkpt lat="40.2824889" lon="15.0138998"><ele>259.0</ele><time>2026-04-19T16:09:25.329Z</time></trkpt><trkpt lat="40.2825504" lon="15.0138621"><ele>261.5</ele><time>2026-04-19T16:09:33.328Z</time></trkpt><trkpt lat="40.2825639" lon="15.0139598"><ele>264.0</ele><time>2026-04-19T16:09:36.329Z</time></trkpt><trkpt lat="40.2824917" lon="15.0140693"><ele>265.8333333333333</ele><time>2026-04-19T16:09:38.328Z</time></trkpt><trkpt lat="40.2824498" lon="15.0141593"><ele>267.6666666666667</ele><time>2026-04-19T16:09:39.329Z</time></trkpt><trkpt lat="40.2824017" lon="15.0142387"><ele>269.5</ele><time>2026-04-19T16:09:40.328Z</time></trkpt><trkpt lat="40.2823377" lon="15.0143414"><ele>271.33333333333337</ele><time>2026-04-19T16:09:42.328Z</time></trkpt><trkpt lat="40.2823604" lon="15.0144247"><ele>273.1666666666667</ele><time>2026-04-19T16:09:44.328Z</time></trkpt><trkpt lat="40.2824271" lon="15.0143978"><ele>275.0</ele><time>2026-04-19T16:09:46.328Z</time></trkpt><trkpt lat="40.2825121" lon="15.0142794"><ele>275.0</ele><time>2026-04-19T16:09:48.327Z</time></trkpt><trkpt lat="40.2825768" lon="15.014212"><ele>275.0</ele><time>2026-04-19T16:09:49.328Z</time></trkpt><trkpt lat="40.2826397" lon="15.0141401"><ele>275.0</ele><time>2026-04-19T16:09:50.328Z</time></trkpt><trkpt lat="40.2826878" lon="15.0140801"><ele>275.0</ele><time>2026-04-19T16:09:51.328Z</time></trkpt><trkpt lat="40.2827674" lon="15.014039"><ele>275.0</ele><time>2026-04-19T16:09:53.328Z</time></trkpt><trkpt lat="40.2828132" lon="15.0141067"><ele>275.0</ele><time>2026-04-19T16:09:55.329Z</time></trkpt><trkpt lat="40.2827783" lon="15.0141975"><ele>275.0</ele><time>2026-04-19T16:09:57.327Z</time></trkpt><trkpt lat="40.2826863" lon="15.0143196"><ele>275.0</ele><time>2026-04-19T16:09:59.328Z</time></trkpt><trkpt lat="40.2826384" lon="15.0144"><ele>275.0</ele><time>2026-04-19T16:10:00.327Z</time></trkpt><trkpt lat="40.2826126" lon="15.014478"><ele>275.0</ele><time>2026-04-19T16:10:01.328Z</time></trkpt><trkpt lat="40.2826162" lon="15.0146067"><ele>275.0</ele><time>2026-04-19T16:10:03.328Z</time></trkpt><trkpt lat="40.2827146" lon="15.0147089"><ele>275.0</ele><time>2026-04-19T16:10:05.328Z</time></trkpt><trkpt lat="40.282777" lon="15.0147542"><ele>275.0</ele><time>2026-04-19T16:10:06.327Z</time></trkpt><trkpt lat="40.2828311" lon="15.0148015"><ele>275.0</ele><time>2026-04-19T16:10:07.327Z</time></trkpt><trkpt lat="40.2828827" lon="15.0148668"><ele>275.0</ele><time>2026-04-19T16:10:08.327Z</time></trkpt><trkpt lat="40.282934" lon="15.0149536"><ele>275.0</ele><time>2026-04-19T16:10:09.329Z</time></trkpt><trkpt lat="40.2829975" lon="15.0150601"><ele>275.0</ele><time>2026-04-19T16:10:10.328Z</time></trkpt><trkpt lat="40.2830471" lon="15.0151646"><ele>277.8</ele><time>2026-04-19T16:10:11.327Z</time></trkpt><trkpt lat="40.2830824" lon="15.0152725"><ele>280.6</ele><time>2026-04-19T16:10:12.328Z</time></trkpt><trkpt lat="40.2831215" lon="15.0153999"><ele>283.4</ele><time>2026-04-19T16:10:13.328Z</time></trkpt><trkpt lat="40.2831509" lon="15.0155125"><ele>286.2</ele><time>2026-04-19T16:10:14.328Z</time></trkpt><trkpt lat="40.28318" lon="15.0156275"><ele>289.0</ele><time>2026-04-19T16:10:15.327Z</time></trkpt><trkpt lat="40.2832102" lon="15.0157296"><ele>294.8333333333333</ele><time>2026-04-19T16:10:16.329Z</time></trkpt><trkpt lat="40.2832348" lon="15.0158335"><ele>300.66666666666663</ele><time>2026-04-19T16:10:17.327Z</time></trkpt><trkpt lat="40.2832604" lon="15.0159347"><ele>306.5</ele><time>2026-04-19T16:10:18.328Z</time></trkpt><trkpt lat="40.2832883" lon="15.0160271"><ele>312.3333333333333</ele><time>2026-04-19T16:10:19.327Z</time></trkpt><trkpt lat="40.2833248" lon="15.0161084"><ele>318.1666666666667</ele><time>2026-04-19T16:10:20.327Z</time></trkpt><trkpt lat="40.2833688" lon="15.0161705"><ele>324.0</ele><time>2026-04-19T16:10:21.328Z</time></trkpt><trkpt lat="40.2834352" lon="15.0162157"><ele>324.0</ele><time>2026-04-19T16:10:22.327Z</time></trkpt><trkpt lat="40.2835054" lon="15.0163146"><ele>324.0</ele><time>2026-04-19T16:10:24.328Z</time></trkpt><trkpt lat="40.2835056" lon="15.016443"><ele>324.0</ele><time>2026-04-19T16:10:26.328Z</time></trkpt><trkpt lat="40.2834928" lon="15.0165285"><ele>324.0</ele><time>2026-04-19T16:10:27.329Z</time></trkpt><trkpt lat="40.2834855" lon="15.0166221"><ele>324.0</ele><time>2026-04-19T16:10:28.327Z</time></trkpt><trkpt lat="40.283493" lon="15.0167376"><ele>324.0</ele><time>2026-04-19T16:10:29.329Z</time></trkpt><trkpt lat="40.2834979" lon="15.0168604"><ele>326.6</ele><time>2026-04-19T16:10:30.329Z</time></trkpt><trkpt lat="40.2834937" lon="15.0169704"><ele>329.2</ele><time>2026-04-19T16:10:31.328Z</time></trkpt><trkpt lat="40.2834765" lon="15.0170764"><ele>331.8</ele><time>2026-04-19T16:10:32.327Z</time></trkpt><trkpt lat="40.2834612" lon="15.01719"><ele>334.40000000000003</ele><time>2026-04-19T16:10:33.329Z</time></trkpt><trkpt lat="40.2834597" lon="15.0173375"><ele>337.0</ele><time>2026-04-19T16:10:34.329Z</time></trkpt><trkpt lat="40.2834527" lon="15.0174781"><ele>339.8</ele><time>2026-04-19T16:10:35.328Z</time></trkpt><trkpt lat="40.2834386" lon="15.0176002"><ele>342.6</ele><time>2026-04-19T16:10:36.328Z</time></trkpt><trkpt lat="40.283418" lon="15.0177165"><ele>345.40000000000003</ele><time>2026-04-19T16:10:37.328Z</time></trkpt><trkpt lat="40.283381" lon="15.0178412"><ele>348.20000000000005</ele><time>2026-04-19T16:10:38.328Z</time></trkpt><trkpt lat="40.2833357" lon="15.0179818"><ele>351.0</ele><time>2026-04-19T16:10:39.328Z</time></trkpt><trkpt lat="40.2832905" lon="15.0181"><ele>351.0</ele><time>2026-04-19T16:10:40.327Z</time></trkpt><trkpt lat="40.2832462" lon="15.018198"><ele>351.0</ele><time>2026-04-19T16:10:41.328Z</time></trkpt><trkpt lat="40.2831956" lon="15.0182737"><ele>351.0</ele><time>2026-04-19T16:10:42.329Z</time></trkpt><trkpt lat="40.2831515" lon="15.0183338"><ele>351.0</ele><time>2026-04-19T16:10:43.327Z</time></trkpt><trkpt lat="40.2830591" lon="15.0183764"><ele>351.0</ele><time>2026-04-19T16:10:45.328Z</time></trkpt><trkpt lat="40.2829883" lon="15.0183782"><ele>351.0</ele><time>2026-04-19T16:10:46.327Z</time></trkpt><trkpt lat="40.2829097" lon="15.0183688"><ele>351.8333333333333</ele><time>2026-04-19T16:10:47.329Z</time></trkpt><trkpt lat="40.2828431" lon="15.0183733"><ele>352.6666666666667</ele><time>2026-04-19T16:10:48.328Z</time></trkpt><trkpt lat="40.2827473" lon="15.0184412"><ele>353.5</ele><time>2026-04-19T16:10:50.328Z</time></trkpt><trkpt lat="40.2827096" lon="15.0185889"><ele>354.33333333333337</ele><time>2026-04-19T16:10:52.328Z</time></trkpt><trkpt lat="40.282715" lon="15.0186815"><ele>355.1666666666667</ele><time>2026-04-19T16:10:53.328Z</time></trkpt><trkpt lat="40.2827471" lon="15.0187591"><ele>356.0</ele><time>2026-04-19T16:10:54.327Z</time></trkpt><trkpt lat="40.2828006" lon="15.0188375"><ele>356.0</ele><time>2026-04-19T16:10:55.327Z</time></trkpt><trkpt lat="40.2828716" lon="15.0189073"><ele>356.0</ele><time>2026-04-19T16:10:56.328Z</time></trkpt><trkpt lat="40.2829414" lon="15.0189791"><ele>356.0</ele><time>2026-04-19T16:10:57.328Z</time></trkpt><trkpt lat="40.282997" lon="15.0190379"><ele>356.0</ele><time>2026-04-19T16:10:58.328Z</time></trkpt><trkpt lat="40.2830578" lon="15.0191113"><ele>356.0</ele><time>2026-04-19T16:10:59.327Z</time></trkpt><trkpt lat="40.2830941" lon="15.0191845"><ele>356.0</ele><time>2026-04-19T16:11:00.329Z</time></trkpt><trkpt lat="40.2831281" lon="15.0192625"><ele>357.6</ele><time>2026-04-19T16:11:01.328Z</time></trkpt><trkpt lat="40.2831191" lon="15.0194045"><ele>359.20000000000005</ele><time>2026-04-19T16:11:03.328Z</time></trkpt><trkpt lat="40.2831076" lon="15.0195045"><ele>360.79999999999995</ele><time>2026-04-19T16:11:05.328Z</time></trkpt><trkpt lat="40.2831089" lon="15.0195882"><ele>362.4</ele><time>2026-04-19T16:11:09.328Z</time></trkpt><trkpt lat="40.2830742" lon="15.0197085"><ele>364.0</ele><time>2026-04-19T16:11:13.328Z</time></trkpt><trkpt lat="40.283034" lon="15.0198808"><ele>365.5</ele><time>2026-04-19T16:11:15.327Z</time></trkpt><trkpt lat="40.283006" lon="15.0200089"><ele>367.0</ele><time>2026-04-19T16:11:16.328Z</time></trkpt><trkpt lat="40.2829716" lon="15.0201338"><ele>368.5</ele><time>2026-04-19T16:11:17.328Z</time></trkpt><trkpt lat="40.2829443" lon="15.020243"><ele>370.0</ele><time>2026-04-19T16:11:18.328Z</time></trkpt><trkpt lat="40.2829189" lon="15.0203346"><ele>371.5</ele><time>2026-04-19T16:11:19.329Z</time></trkpt><trkpt lat="40.2828948" lon="15.0204183"><ele>373.0</ele><time>2026-04-19T16:11:20.329Z</time></trkpt><trkpt lat="40.2828494" lon="15.0205127"><ele>373.0</ele><time>2026-04-19T16:11:22.328Z</time></trkpt></trkseg></trk></gpx>